Time;durP1;ratioP1;P1;durP2;ratioP2;P2;SDS_P1;SDS_P2;PMS_P1;PMS_P2;Temp;Humidity;BMP_temperature;BMP_pressure;BME280_temperature;BME280_humidity;BME280_pressure;Samples;Min_cycle;Max_cycle;Signal;HPM_P1;HPM_P2
2023/09/08 00:02:06;;;;;;;5.43;4.53;;;16.60;99.90;;;;;;5080255;28;20171;-80
2023/09/08 00:04:32;;;;;;;4.80;4.40;;;16.50;99.90;;;;;;5080408;28;20228;-80
2023/09/08 00:06:59;;;;;;;5.87;4.87;;;16.50;99.90;;;;;;5080298;28;20169;-82
2023/09/08 00:09:24;;;;;;;5.23;4.77;;;16.50;99.90;;;;;;5074554;28;20195;-80
2023/09/08 00:11:50;;;;;;;5.63;4.87;;;16.60;99.90;;;;;;5058654;28;20181;-79
2023/09/08 00:14:17;;;;;;;5.30;4.53;;;16.60;99.90;;;;;;5071004;28;20204;-78
2023/09/08 00:16:43;;;;;;;4.87;4.53;;;16.50;99.90;;;;;;5060535;28;20183;-82
2023/09/08 00:19:10;;;;;;;5.53;5.03;;;16.50;99.90;;;;;;5060436;28;20196;-81
2023/09/08 00:21:37;;;;;;;5.10;4.70;;;16.50;99.90;;;;;;5061114;28;20224;-85
2023/09/08 00:24:05;;;;;;;5.33;4.77;;;16.50;99.90;;;;;;5059881;28;20180;-83
2023/09/08 00:26:33;;;;;;;7.00;5.23;;;16.50;99.90;;;;;;5056863;28;20158;-82
2023/09/08 00:28:58;;;;;;;5.10;4.57;;;16.40;99.90;;;;;;5050176;28;20243;-83
2023/09/08 00:31:24;;;;;;;5.27;4.87;;;16.50;99.90;;;;;;5061277;28;20172;-82
2023/09/08 00:33:50;;;;;;;5.07;4.67;;;16.50;99.90;;;;;;5041401;28;20164;-81
2023/09/08 00:36:16;;;;;;;5.50;5.00;;;16.50;99.90;;;;;;5038233;28;20180;-81
2023/09/08 00:38:41;;;;;;;5.87;4.73;;;16.50;99.90;;;;;;5037611;28;20222;-81
2023/09/08 00:41:07;;;;;;;5.67;4.67;;;16.40;99.90;;;;;;5037404;28;20215;-81
2023/09/08 00:43:33;;;;;;;5.60;5.10;;;16.40;99.90;;;;;;5037425;28;20582;-82
2023/09/08 00:46:02;;;;;;;5.60;4.83;;;16.40;99.90;;;;;;5035845;28;20194;-81
2023/09/08 00:48:28;;;;;;;5.17;4.70;;;16.40;99.90;;;;;;5037010;28;20632;-81
2023/09/08 00:50:55;;;;;;;5.60;5.00;;;16.40;99.90;;;;;;5037554;28;20720;-81
2023/09/08 00:53:21;;;;;;;7.60;5.03;;;16.40;99.90;;;;;;5036163;28;20182;-81
2023/09/08 00:55:48;;;;;;;5.47;5.03;;;16.40;99.90;;;;;;5036825;28;20196;-81
2023/09/08 00:58:14;;;;;;;5.23;4.77;;;16.40;99.90;;;;;;5042990;28;20195;-83
2023/09/08 01:00:40;;;;;;;5.33;4.93;;;16.40;99.90;;;;;;5047782;28;20203;-83
2023/09/08 01:03:06;;;;;;;5.67;5.17;;;16.40;99.90;;;;;;5044707;28;20193;-82
2023/09/08 01:05:32;;;;;;;5.93;5.37;;;16.40;99.90;;;;;;5037186;28;20189;-82
2023/09/08 01:08:00;;;;;;;5.23;4.87;;;16.40;99.90;;;;;;5035918;28;20291;-82
2023/09/08 01:10:25;;;;;;;5.37;4.87;;;16.40;99.90;;;;;;5037044;28;20222;-80
2023/09/08 01:12:51;;;;;;;5.23;4.83;;;16.40;99.90;;;;;;5036586;28;20571;-81
2023/09/08 01:15:17;;;;;;;6.20;5.07;;;16.40;99.90;;;;;;5036139;28;20325;-80
2023/09/08 01:17:43;;;;;;;5.50;5.00;;;16.50;99.90;;;;;;5035946;28;20219;-82
2023/09/08 01:20:22;;;;;;;5.30;4.87;;;16.40;99.90;;;;;;5035314;28;20265;-81
2023/09/08 01:23:28;;;;;;;5.47;4.87;;;16.40;99.90;;;;;;5035327;28;20628;-82
2023/09/08 01:26:08;;;;;;;5.33;4.93;;;16.50;99.90;;;;;;5036391;28;20157;-83
2023/09/08 01:28:34;;;;;;;5.37;4.87;;;16.50;99.90;;;;;;5036116;28;20193;-80
2023/09/08 01:31:00;;;;;;;5.40;4.90;;;16.50;99.90;;;;;;5035570;28;20173;-80
2023/09/08 01:33:27;;;;;;;5.00;4.60;;;16.50;99.90;;;;;;5036848;28;20172;-81
2023/09/08 01:35:53;;;;;;;5.67;5.17;;;16.50;99.90;;;;;;5035427;28;20282;-79
2023/09/08 01:38:20;;;;;;;6.60;4.70;;;16.40;99.90;;;;;;5036801;28;20626;-80
2023/09/08 01:40:46;;;;;;;5.23;4.83;;;16.30;99.90;;;;;;5036484;28;20203;-79
2023/09/08 01:43:12;;;;;;;5.30;4.80;;;16.30;99.90;;;;;;5036639;28;20164;-80
2023/09/08 01:45:38;;;;;;;4.93;4.53;;;16.30;99.90;;;;;;5049444;28;20173;-84
2023/09/08 01:48:04;;;;;;;5.40;4.90;;;16.20;99.90;;;;;;5040255;28;20259;-82
2023/09/08 01:50:30;;;;;;;5.67;5.17;;;16.20;99.90;;;;;;5041054;28;20223;-81
2023/09/08 01:52:56;;;;;;;5.53;5.03;;;16.20;99.90;;;;;;5043037;28;20200;-82
2023/09/08 01:55:22;;;;;;;5.67;5.23;;;16.20;99.90;;;;;;5049798;28;20176;-82
2023/09/08 01:57:47;;;;;;;5.67;5.03;;;16.30;99.90;;;;;;5056198;28;20197;-81
2023/09/08 02:00:13;;;;;;;5.80;5.13;;;16.30;99.90;;;;;;5040364;28;20211;-79
2023/09/08 02:02:39;;;;;;;5.03;4.63;;;16.20;99.90;;;;;;5038287;28;20181;-82
2023/09/08 02:05:06;;;;;;;5.33;4.93;;;16.20;99.90;;;;;;5040344;28;20267;-81
2023/09/08 02:07:32;;;;;;;5.27;4.80;;;16.20;99.90;;;;;;5037872;28;20605;-84
2023/09/08 02:09:57;;;;;;;5.20;4.70;;;16.20;99.90;;;;;;5052965;28;20208;-82
2023/09/08 02:12:23;;;;;;;5.20;4.80;;;16.10;99.90;;;;;;5050344;28;20241;-80
2023/09/08 02:14:49;;;;;;;5.17;4.67;;;16.10;99.90;;;;;;5041527;28;20188;-83
2023/09/08 02:17:15;;;;;;;5.10;4.70;;;16.00;99.90;;;;;;5035018;28;20183;-80
2023/09/08 02:19:40;;;;;;;5.77;5.10;;;16.00;99.90;;;;;;5035771;28;20564;-81
2023/09/08 02:22:06;;;;;;;6.20;5.60;;;16.00;99.90;;;;;;5036107;28;20181;-81
2023/09/08 02:24:32;;;;;;;9.17;4.97;;;16.00;99.90;;;;;;5036600;28;20177;-81
2023/09/08 02:26:58;;;;;;;5.60;5.20;;;16.00;99.90;;;;;;5035082;28;20177;-80
2023/09/08 02:29:23;;;;;;;5.53;4.97;;;16.00;99.90;;;;;;5034759;28;20180;-81
2023/09/08 02:31:49;;;;;;;5.67;5.17;;;16.10;99.90;;;;;;5035127;28;20547;-80
2023/09/08 02:34:15;;;;;;;6.30;5.50;;;16.10;99.90;;;;;;5034152;28;20219;-81
2023/09/08 02:36:41;;;;;;;5.90;5.40;;;16.10;99.90;;;;;;5038207;28;20181;-83
2023/09/08 02:39:07;;;;;;;6.17;5.57;;;16.00;99.90;;;;;;5039451;28;20190;-80
2023/09/08 02:41:33;;;;;;;5.67;5.17;;;16.00;99.90;;;;;;5040450;28;20232;-81
2023/09/08 02:43:59;;;;;;;5.60;5.13;;;16.00;99.90;;;;;;5038111;28;20712;-81
2023/09/08 02:46:25;;;;;;;6.00;5.00;;;16.00;99.90;;;;;;5034604;28;20211;-81
2023/09/08 02:48:51;;;;;;;5.27;4.80;;;16.00;99.90;;;;;;5034683;28;20621;-81
2023/09/08 02:51:17;;;;;;;5.47;4.93;;;16.00;99.90;;;;;;5036341;28;20269;-81
2023/09/08 02:53:43;;;;;;;5.83;5.33;;;16.00;99.90;;;;;;5036461;28;20176;-81
2023/09/08 02:56:09;;;;;;;5.70;5.20;;;16.00;99.90;;;;;;5034551;28;20176;-80
2023/09/08 02:58:35;;;;;;;6.20;5.10;;;15.90;99.90;;;;;;5035800;28;20171;-85
2023/09/08 03:01:19;;;;;;;7.63;5.20;;;15.90;99.90;;;;;;5036325;28;20210;-82
2023/09/08 03:03:45;;;;;;;5.93;5.33;;;16.00;99.90;;;;;;5036156;28;20195;-82
2023/09/08 03:06:13;;;;;;;6.47;5.37;;;15.90;99.90;;;;;;5034575;28;20692;-82
2023/09/08 03:08:39;;;;;;;5.53;5.13;;;15.90;99.90;;;;;;5033898;28;20652;-82
2023/09/08 03:11:05;;;;;;;5.70;5.17;;;16.00;99.90;;;;;;5033391;28;20184;-81
2023/09/08 03:13:35;;;;;;;6.10;5.60;;;16.00;99.90;;;;;;5034984;28;20174;-81
2023/09/08 03:16:08;;;;;;;6.10;5.60;;;16.00;99.90;;;;;;5034197;28;20176;-81
2023/09/08 03:18:36;;;;;;;6.10;5.37;;;15.90;99.90;;;;;;5033171;28;20172;-79
2023/09/08 03:21:08;;;;;;;6.40;5.80;;;15.90;99.90;;;;;;5033449;28;20200;-80
2023/09/08 03:23:38;;;;;;;5.73;5.23;;;15.90;99.90;;;;;;5040422;28;20163;-81
2023/09/08 03:26:04;;;;;;;5.90;5.40;;;15.80;99.90;;;;;;5047324;28;20195;-81
2023/09/08 03:28:30;;;;;;;7.50;5.50;;;15.80;99.90;;;;;;5034215;28;20172;-80
2023/09/08 03:30:56;;;;;;;7.23;5.53;;;15.90;99.90;;;;;;5035001;28;20184;-83
2023/09/08 03:33:21;;;;;;;6.07;5.47;;;15.80;99.90;;;;;;5038924;28;20170;-82
2023/09/08 03:35:47;;;;;;;7.17;5.90;;;15.70;99.90;;;;;;5054826;28;20185;-82
2023/09/08 03:38:13;;;;;;;6.60;5.50;;;15.70;99.90;;;;;;5049686;28;20264;-80
2023/09/08 03:40:39;;;;;;;6.00;5.27;;;15.60;99.90;;;;;;5036517;28;20206;-79
2023/09/08 03:43:05;;;;;;;6.10;5.57;;;15.60;99.90;;;;;;5042973;28;20248;-82
2023/09/08 03:45:30;;;;;;;6.30;5.63;;;15.60;99.90;;;;;;5042264;28;20215;-80
2023/09/08 03:47:56;;;;;;;6.03;5.53;;;15.60;99.90;;;;;;5037628;28;20203;-80
2023/09/08 03:50:22;;;;;;;7.67;5.67;;;15.60;99.90;;;;;;5049167;28;20228;-80
2023/09/08 03:52:49;;;;;;;5.87;5.37;;;15.60;99.90;;;;;;5046383;28;20158;-81
2023/09/08 03:55:15;;;;;;;8.00;5.60;;;15.60;99.90;;;;;;5042409;28;20626;-80
2023/09/08 03:57:40;;;;;;;6.00;5.50;;;15.60;99.90;;;;;;5034955;28;20179;-82
2023/09/08 04:00:07;;;;;;;6.40;5.80;;;15.60;99.90;;;;;;5036686;28;20607;-80
2023/09/08 04:02:33;;;;;;;6.13;5.30;;;15.60;99.90;;;;;;5034053;28;20540;-81
2023/09/08 04:04:59;;;;;;;7.03;5.67;;;15.60;99.90;;;;;;5035530;28;20182;-81
2023/09/08 04:07:25;;;;;;;6.70;5.40;;;15.50;99.90;;;;;;5035204;28;20177;-83
2023/09/08 04:09:51;;;;;;;8.80;5.50;;;15.50;99.90;;;;;;5040318;28;20584;-81
2023/09/08 04:12:16;;;;;;;9.50;5.37;;;15.50;99.90;;;;;;5037867;28;20306;-76
2023/09/08 04:14:42;;;;;;;11.63;5.57;;;15.50;99.90;;;;;;5033872;28;20208;-77
2023/09/08 04:17:08;;;;;;;6.67;5.53;;;15.50;99.90;;;;;;5033832;28;20540;-76
2023/09/08 04:19:34;;;;;;;6.47;5.70;;;15.50;99.90;;;;;;5034326;28;20176;-76
2023/09/08 04:21:59;;;;;;;7.20;5.90;;;15.50;99.90;;;;;;5033495;28;20239;-78
2023/09/08 04:24:25;;;;;;;6.17;5.57;;;15.50;99.90;;;;;;5033956;28;20178;-77
2023/09/08 04:26:51;;;;;;;6.60;6.00;;;15.50;99.90;;;;;;5034230;28;20169;-76
2023/09/08 04:29:17;;;;;;;7.77;5.63;;;15.50;99.90;;;;;;5032968;28;20492;-77
2023/09/08 04:31:44;;;;;;;6.03;5.53;;;15.50;99.90;;;;;;5034723;28;20530;-77
2023/09/08 04:34:09;;;;;;;6.03;5.40;;;15.50;99.90;;;;;;5035089;28;20172;-78
2023/09/08 04:36:35;;;;;;;7.37;5.37;;;15.50;99.90;;;;;;5035161;28;20583;-76
2023/09/08 04:39:01;;;;;;;7.70;5.30;;;15.50;99.90;;;;;;5037316;28;20173;-76
2023/09/08 04:41:27;;;;;;;5.67;5.17;;;15.50;99.90;;;;;;5038337;28;20213;-76
2023/09/08 04:43:53;;;;;;;5.90;5.40;;;15.50;99.90;;;;;;5038130;28;20191;-77
2023/09/08 04:46:19;;;;;;;5.37;4.87;;;15.60;99.90;;;;;;5034791;28;20539;-76
2023/09/08 04:48:45;;;;;;;6.00;5.40;;;15.60;99.90;;;;;;5035430;28;20180;-77
2023/09/08 04:51:11;;;;;;;6.53;5.83;;;15.50;99.90;;;;;;5051263;28;20637;-76
2023/09/08 04:53:36;;;;;;;5.23;4.73;;;15.50;99.90;;;;;;5056509;28;20186;-76
2023/09/08 04:56:02;;;;;;;5.17;4.67;;;15.50;99.90;;;;;;5060469;28;20177;-79
2023/09/08 04:58:28;;;;;;;5.37;4.97;;;15.50;99.90;;;;;;5059621;28;20180;-76
2023/09/08 05:00:54;;;;;;;5.27;4.80;;;15.40;99.90;;;;;;5057404;28;20251;-76
2023/09/08 05:03:19;;;;;;;5.70;5.20;;;15.40;99.90;;;;;;5055811;28;20221;-77
2023/09/08 05:05:45;;;;;;;5.60;5.10;;;15.40;99.90;;;;;;5057313;28;20179;-78
2023/09/08 05:08:11;;;;;;;5.47;4.90;;;15.50;99.90;;;;;;5057050;28;20173;-75
2023/09/08 05:10:37;;;;;;;5.33;4.87;;;15.50;99.90;;;;;;5061205;28;20189;-77
2023/09/08 05:13:02;;;;;;;5.90;5.10;;;15.50;99.90;;;;;;5071021;28;20177;-76
2023/09/08 05:15:30;;;;;;;6.90;5.33;;;15.50;99.90;;;;;;5063570;28;20183;-77
2023/09/08 05:17:56;;;;;;;4.87;4.50;;;15.50;99.90;;;;;;5064959;28;20194;-78
2023/09/08 05:20:22;;;;;;;6.83;5.00;;;15.50;99.90;;;;;;5056533;28;20231;-77
2023/09/08 05:22:48;;;;;;;5.70;5.20;;;15.50;99.90;;;;;;5056464;28;20168;-76
2023/09/08 05:25:14;;;;;;;6.80;5.47;;;15.60;99.90;;;;;;5057010;28;20175;-78
2023/09/08 05:27:39;;;;;;;7.60;5.70;;;15.60;99.90;;;;;;5069020;28;20176;-78
2023/09/08 05:30:06;;;;;;;10.30;6.10;;;15.70;99.90;;;;;;5063444;28;20184;-77
2023/09/08 05:32:32;;;;;;;7.07;5.70;;;15.70;99.90;;;;;;5061065;28;20199;-76
2023/09/08 05:34:59;;;;;;;6.60;5.63;;;15.70;99.90;;;;;;5066903;28;20180;-76
2023/09/08 05:37:24;;;;;;;6.70;6.10;;;15.80;99.90;;;;;;5065458;28;20586;-77
2023/09/08 05:39:50;;;;;;;7.80;5.70;;;15.90;99.90;;;;;;5060505;28;20175;-77
2023/09/08 05:42:16;;;;;;;8.87;5.57;;;15.90;99.90;;;;;;5057160;28;20513;-76
2023/09/08 05:44:42;;;;;;;5.93;5.37;;;16.00;99.90;;;;;;5054945;28;20173;-76
2023/09/08 05:47:07;;;;;;;6.03;5.53;;;16.00;99.90;;;;;;5059090;28;20216;-76
2023/09/08 05:49:33;;;;;;;7.50;5.97;;;16.10;99.90;;;;;;5057395;28;20190;-76
2023/09/08 05:51:59;;;;;;;7.90;5.80;;;16.10;99.90;;;;;;5056314;28;20266;-76
2023/09/08 05:54:25;;;;;;;6.20;5.60;;;16.20;99.90;;;;;;5057695;28;20183;-76
2023/09/08 05:56:51;;;;;;;7.23;5.33;;;16.20;99.90;;;;;;5058899;28;20303;-78
2023/09/08 05:59:17;;;;;;;6.00;5.43;;;16.30;99.90;;;;;;5057692;28;20171;-76
2023/09/08 06:01:43;;;;;;;8.40;5.43;;;16.30;99.90;;;;;;5055241;28;20251;-77
2023/09/08 06:04:09;;;;;;;6.97;6.00;;;16.30;99.90;;;;;;5061903;28;20242;-77
2023/09/08 06:06:35;;;;;;;7.17;5.60;;;16.40;99.90;;;;;;5069137;28;20303;-77
2023/09/08 06:09:00;;;;;;;7.07;5.87;;;16.50;99.90;;;;;;5060748;28;20264;-77
2023/09/08 06:11:26;;;;;;;5.97;5.37;;;16.50;99.90;;;;;;5058409;28;20181;-77
2023/09/08 06:13:55;;;;;;;7.90;5.87;;;16.50;99.90;;;;;;5058839;28;20179;-76
2023/09/08 06:16:21;;;;;;;7.23;5.70;;;16.60;99.90;;;;;;5058296;28;20167;-76
2023/09/08 06:18:48;;;;;;;7.20;5.57;;;16.60;99.90;;;;;;5058701;28;20182;-78
2023/09/08 06:21:14;;;;;;;7.10;5.67;;;16.70;99.90;;;;;;5059063;28;20294;-76
2023/09/08 06:23:39;;;;;;;5.70;5.10;;;16.70;99.90;;;;;;5060118;28;20203;-77
2023/09/08 06:26:05;;;;;;;6.47;5.87;;;16.70;99.90;;;;;;5059443;28;20171;-77
2023/09/08 06:28:31;;;;;;;5.83;5.20;;;16.80;99.90;;;;;;5056797;28;20191;-77
2023/09/08 06:30:57;;;;;;;7.53;5.93;;;16.90;99.90;;;;;;5056498;28;20217;-78
2023/09/08 06:33:23;;;;;;;8.10;5.57;;;17.00;99.90;;;;;;5057942;28;20172;-77
2023/09/08 06:35:49;;;;;;;6.30;5.40;;;17.10;99.90;;;;;;5059631;28;20175;-76
2023/09/08 06:38:14;;;;;;;7.50;5.83;;;17.10;99.90;;;;;;5059320;28;20202;-77
2023/09/08 06:40:42;;;;;;;7.07;5.77;;;17.20;99.90;;;;;;5060409;28;20257;-76
2023/09/08 06:43:08;;;;;;;6.13;5.23;;;17.20;99.90;;;;;;5060482;28;20588;-76
2023/09/08 06:45:37;;;;;;;7.67;5.63;;;17.30;99.90;;;;;;5056512;28;20220;-77
2023/09/08 06:48:03;;;;;;;5.80;5.30;;;17.40;99.90;;;;;;5056281;28;20168;-78
2023/09/08 06:50:30;;;;;;;7.97;5.80;;;17.40;99.90;;;;;;5066406;28;20207;-78
2023/09/08 06:52:55;;;;;;;6.50;5.70;;;17.50;99.90;;;;;;5068302;28;20286;-77
2023/09/08 06:55:21;;;;;;;5.93;5.33;;;17.60;99.90;;;;;;5068259;28;20180;-76
2023/09/08 06:57:48;;;;;;;7.77;5.27;;;17.60;99.90;;;;;;5057241;28;20183;-76
2023/09/08 07:00:17;;;;;;;6.20;5.33;;;17.60;99.90;;;;;;5055502;28;20286;-79
2023/09/08 07:02:43;;;;;;;6.30;5.70;;;17.70;99.90;;;;;;5054181;28;20180;-78
2023/09/08 07:05:09;;;;;;;5.97;5.33;;;17.80;99.90;;;;;;5056568;28;20175;-79
2023/09/08 07:07:35;;;;;;;6.20;5.60;;;17.90;99.90;;;;;;5072527;28;20172;-76
2023/09/08 07:10:05;;;;;;;7.47;5.43;;;18.00;99.90;;;;;;5056404;28;20225;-76
2023/09/08 07:12:31;;;;;;;7.13;5.00;;;18.00;99.90;;;;;;5056776;28;20265;-76
2023/09/08 07:14:57;;;;;;;9.37;5.03;;;18.10;99.90;;;;;;5055872;28;20172;-78
2023/09/08 07:17:25;;;;;;;6.97;5.30;;;18.20;99.90;;;;;;5056329;28;20203;-77
2023/09/08 07:19:51;;;;;;;7.23;5.13;;;18.30;99.90;;;;;;5069095;28;20168;-76
2023/09/08 07:22:17;;;;;;;5.93;5.20;;;18.40;99.90;;;;;;5058122;28;20191;-78
2023/09/08 07:24:44;;;;;;;7.40;5.97;;;18.50;99.90;;;;;;5057573;28;20159;-77
2023/09/08 07:27:10;;;;;;;6.00;5.30;;;18.70;99.90;;;;;;5058622;28;20269;-78
2023/09/08 07:29:35;;;;;;;7.47;5.30;;;18.70;99.90;;;;;;5053794;28;20180;-76
2023/09/08 07:32:02;;;;;;;6.67;5.50;;;18.70;99.90;;;;;;5053923;28;20178;-77
2023/09/08 07:34:28;;;;;;;6.13;5.53;;;18.80;99.90;;;;;;5053990;28;20215;-77
2023/09/08 07:36:54;;;;;;;6.70;6.00;;;18.90;99.90;;;;;;5057984;28;20164;-77
2023/09/08 07:39:19;;;;;;;6.63;5.60;;;18.90;99.90;;;;;;5055445;28;20631;-77
2023/09/08 07:41:45;;;;;;;7.33;4.90;;;19.00;99.90;;;;;;5055054;28;20235;-78
2023/09/08 07:44:13;;;;;;;11.07;5.40;;;19.00;99.90;;;;;;5054662;28;20258;-78
2023/09/08 07:46:38;;;;;;;6.07;5.47;;;19.10;99.90;;;;;;5054581;28;20191;-77
2023/09/08 07:49:04;;;;;;;8.47;5.60;;;19.20;99.90;;;;;;5054819;28;20541;-77
2023/09/08 07:51:30;;;;;;;7.73;5.43;;;19.30;99.90;;;;;;5054072;28;20219;-78
2023/09/08 07:53:56;;;;;;;6.97;5.63;;;19.40;99.90;;;;;;5054749;28;20576;-77
2023/09/08 07:56:22;;;;;;;6.10;5.50;;;19.50;99.90;;;;;;5055693;28;20262;-76
2023/09/08 07:58:48;;;;;;;5.50;4.67;;;19.60;99.90;;;;;;5054141;28;20172;-78
2023/09/08 08:01:15;;;;;;;6.43;5.50;;;19.70;99.90;;;;;;5055731;28;20215;-78
2023/09/08 08:03:41;;;;;;;7.87;5.43;;;19.80;99.90;;;;;;5054936;28;20170;-78
2023/09/08 08:06:07;;;;;;;5.47;4.90;;;19.90;99.90;;;;;;5054627;28;20720;-76
2023/09/08 08:08:38;;;;;;;7.63;5.13;;;20.00;99.90;;;;;;5056308;28;20203;-77
2023/09/08 08:11:20;;;;;;;5.30;4.90;;;20.10;99.90;;;;;;5055750;28;20209;-76
2023/09/08 08:13:46;;;;;;;5.10;4.57;;;20.10;99.90;;;;;;5059294;28;20160;-77
2023/09/08 08:16:12;;;;;;;5.40;4.80;;;20.10;99.90;;;;;;5067829;28;20168;-76
2023/09/08 08:18:39;;;;;;;4.73;4.20;;;20.20;99.90;;;;;;5069585;28;20174;-78
2023/09/08 08:21:05;;;;;;;4.67;4.33;;;20.30;99.90;;;;;;5070288;28;20196;-77
2023/09/08 08:23:32;;;;;;;5.70;5.10;;;20.30;99.90;;;;;;5073508;28;20203;-77
2023/09/08 08:25:58;;;;;;;6.03;4.63;;;20.40;99.90;;;;;;5077916;28;20171;-77
2023/09/08 08:28:25;;;;;;;6.43;5.20;;;20.50;99.90;;;;;;5070365;28;20156;-76
2023/09/08 08:30:51;;;;;;;5.23;4.73;;;20.60;99.90;;;;;;5075074;28;20168;-78
2023/09/08 08:33:17;;;;;;;5.30;4.80;;;20.60;99.90;;;;;;5066221;28;20167;-78
2023/09/08 08:35:53;;;;;;;5.10;4.70;;;20.70;99.90;;;;;;5076245;28;20192;-78
2023/09/08 08:38:19;;;;;;;7.73;5.07;;;20.90;99.90;;;;;;5076459;28;20171;-77
2023/09/08 08:40:45;;;;;;;4.60;4.20;;;20.90;99.90;;;;;;5080859;28;20203;-77
2023/09/08 08:43:11;;;;;;;7.13;4.50;;;21.10;99.90;;;;;;5081197;28;20179;-79
2023/09/08 08:45:39;;;;;;;5.40;4.90;;;21.10;99.90;;;;;;5080966;28;20326;-79
2023/09/08 08:48:07;;;;;;;5.43;4.80;;;21.20;99.90;;;;;;5078597;28;20195;-78
2023/09/08 08:50:35;;;;;;;6.23;4.70;;;21.30;99.90;;;;;;5065736;28;20555;-77
2023/09/08 08:53:02;;;;;;;5.27;4.37;;;21.40;99.90;;;;;;5060914;28;20258;-77
2023/09/08 08:55:29;;;;;;;5.13;4.53;;;21.30;99.90;;;;;;5059752;28;20194;-77
2023/09/08 08:58:01;;;;;;;5.77;4.37;;;21.40;99.90;;;;;;5058649;28;20221;-78
2023/09/08 09:00:27;;;;;;;5.20;4.70;;;21.40;99.90;;;;;;5058531;28;20203;-78
2023/09/08 09:02:54;;;;;;;4.80;4.40;;;21.40;99.90;;;;;;5058209;28;20225;-79
2023/09/08 09:05:20;;;;;;;5.17;4.37;;;21.50;99.90;;;;;;5056613;28;20187;-80
2023/09/08 09:07:46;;;;;;;7.07;4.50;;;21.50;99.90;;;;;;5057669;28;20172;-80
2023/09/08 09:10:13;;;;;;;4.70;4.30;;;21.60;99.90;;;;;;5058181;28;20168;-77
2023/09/08 09:12:39;;;;;;;5.03;4.57;;;21.70;99.90;;;;;;5055300;28;20589;-79
2023/09/08 09:15:05;;;;;;;5.37;4.70;;;21.70;99.90;;;;;;5061955;28;20199;-77
2023/09/08 09:17:35;;;;;;;8.17;4.67;;;21.70;99.90;;;;;;5058584;28;20206;-78
2023/09/08 09:20:20;;;;;;;8.17;4.43;;;21.80;99.90;;;;;;5057389;28;20195;-78
2023/09/08 09:22:46;;;;;;;4.57;4.20;;;21.90;99.90;;;;;;5056006;28;20179;-77
2023/09/08 09:25:31;;;;;;;6.73;5.00;;;22.00;99.90;;;;;;5057557;28;20192;-77
2023/09/08 09:28:02;;;;;;;5.90;4.17;;;22.10;99.90;;;;;;5057469;28;20206;-78
2023/09/08 09:30:45;;;;;;;4.90;4.50;;;22.20;99.90;;;;;;5057620;28;20608;-78
2023/09/08 09:33:11;;;;;;;6.60;4.40;;;22.20;99.90;;;;;;5056454;28;20180;-79
2023/09/08 09:35:44;;;;;;;4.37;3.97;;;22.30;99.90;;;;;;5059045;28;20179;-79
2023/09/08 09:38:10;;;;;;;4.53;4.13;;;22.30;99.90;;;;;;5057971;28;20180;-78
2023/09/08 09:40:36;;;;;;;4.15;3.85;;;22.30;99.90;;;;;;5057564;28;20294;-78
2023/09/08 09:43:04;;;;;;;4.15;3.85;;;22.30;99.90;;;;;;5055896;28;20191;-78
2023/09/08 09:45:30;;;;;;;5.13;4.33;;;22.30;99.90;;;;;;5056315;28;20211;-80
2023/09/08 09:47:56;;;;;;;4.70;4.30;;;22.40;99.90;;;;;;5057365;28;20168;-78
2023/09/08 09:50:33;;;;;;;6.97;4.07;;;22.40;99.90;;;;;;5056227;28;20611;-77
2023/09/08 09:53:00;;;;;;;4.33;4.03;;;22.40;99.90;;;;;;5057105;28;20187;-78
2023/09/08 09:55:27;;;;;;;4.47;3.50;;;22.30;99.90;;;;;;5056607;28;20536;-80
2023/09/08 09:58:03;;;;;;;4.25;3.95;;;22.30;99.90;;;;;;5064313;28;20176;-80
2023/09/08 10:00:30;;;;;;;4.17;3.87;;;22.30;99.90;;;;;;5065081;28;20206;-78
2023/09/08 10:02:56;;;;;;;5.30;4.33;;;22.40;99.90;;;;;;5057932;28;20230;-77
2023/09/08 10:05:26;;;;;;;4.68;4.07;;;22.40;99.90;;;;;;5057260;28;20176;-79
2023/09/08 10:07:52;;;;;;;4.23;3.93;;;22.40;99.90;;;;;;5056456;28;20199;-78
2023/09/08 10:10:20;;;;;;;4.43;3.72;;;22.50;99.90;;;;;;5057180;28;20175;-81
2023/09/08 10:12:52;;;;;;;4.15;3.85;;;22.50;99.90;;;;;;5072212;28;20204;-78
2023/09/08 10:15:21;;;;;;;5.50;3.70;;;22.50;99.90;;;;;;5060951;28;20160;-77
2023/09/08 10:17:57;;;;;;;6.85;4.45;;;22.60;99.90;;;;;;5058238;28;20160;-83
2023/09/08 10:20:28;;;;;;;3.97;3.67;;;22.60;99.90;;;;;;5059897;28;20251;-78
2023/09/08 10:23:22;;;;;;;3.58;3.28;;;22.50;99.90;;;;;;5061911;28;20183;-81
2023/09/08 10:25:54;;;;;;;4.23;3.77;;;22.60;99.90;;;;;;5068923;28;20156;-77
2023/09/08 10:28:22;;;;;;;4.07;3.78;;;22.60;99.90;;;;;;5059176;28;20160;-79
2023/09/08 10:30:48;;;;;;;5.78;4.00;;;22.70;99.90;;;;;;5056304;28;20176;-79
2023/09/08 10:33:16;;;;;;;4.03;3.70;;;22.80;99.90;;;;;;5065064;28;20195;-78
2023/09/08 10:35:43;;;;;;;4.47;3.55;;;22.80;99.90;;;;;;5067635;28;20183;-77
2023/09/08 10:38:32;;;;;;;5.57;4.30;;;22.80;99.90;;;;;;5070974;28;20180;-77
2023/09/08 10:41:16;;;;;;;5.95;3.80;;;22.80;99.90;;;;;;5067996;28;20208;-77
2023/09/08 10:44:01;;;;;;;3.70;3.40;;;23.00;99.90;;;;;;5069518;28;20175;-77
2023/09/08 10:46:28;;;;;;;5.40;4.07;;;23.10;99.90;;;;;;5070334;28;20184;-77
2023/09/08 10:49:00;;;;;;;7.15;4.35;;;23.10;99.90;;;;;;5067652;28;20728;-77
2023/09/08 10:51:28;;;;;;;4.88;3.83;;;22.90;99.90;;;;;;5062602;28;20231;-78
2023/09/08 11:36:01;;;;;;;3.83;3.58;;;24.00;98.70;;;;;;4943795;29;20194;-80
2023/09/08 12:32:09;;;;;;;4.20;3.55;;;24.30;97.50;;;;;;5079206;28;20225;-78
2023/09/08 12:34:35;;;;;;;4.95;3.75;;;24.30;96.80;;;;;;5093343;28;20183;-77
2023/09/08 12:37:01;;;;;;;3.60;3.40;;;24.30;96.60;;;;;;5092782;28;20167;-78
2023/09/08 12:39:26;;;;;;;4.40;3.85;;;24.40;97.30;;;;;;5076238;28;20204;-80
2023/09/08 12:41:52;;;;;;;3.53;3.33;;;24.40;97.00;;;;;;5095488;28;20207;-79
2023/09/08 12:44:18;;;;;;;3.75;3.45;;;24.40;97.60;;;;;;5092269;28;20246;-77
2023/09/08 12:46:44;;;;;;;4.13;3.58;;;24.40;97.30;;;;;;5074662;28;20183;-77
2023/09/08 12:49:09;;;;;;;3.53;3.33;;;24.40;96.80;;;;;;5074938;28;20199;-78
2023/09/08 12:51:37;;;;;;;4.10;3.78;;;24.40;97.20;;;;;;5076096;28;20326;-80
2023/09/08 12:54:02;;;;;;;3.78;3.47;;;24.40;96.80;;;;;;5079116;28;20156;-79
2023/09/08 12:56:28;;;;;;;4.15;3.75;;;24.40;95.80;;;;;;5097636;28;20190;-77
2023/09/08 12:58:54;;;;;;;4.97;4.00;;;24.40;96.40;;;;;;5099257;28;20167;-77
2023/09/08 13:01:20;;;;;;;4.15;3.78;;;24.40;96.50;;;;;;5096557;28;20199;-77
2023/09/08 13:03:46;;;;;;;4.22;3.90;;;24.50;96.50;;;;;;5094853;28;20717;-77
2023/09/08 13:06:12;;;;;;;4.22;3.72;;;24.50;96.60;;;;;;5093237;28;20171;-79
2023/09/08 13:08:37;;;;;;;5.18;3.67;;;24.50;95.90;;;;;;5093617;28;20183;-77
2023/09/08 13:11:03;;;;;;;4.18;3.90;;;24.50;95.80;;;;;;5092188;28;20178;-78
2023/09/08 13:13:30;;;;;;;4.85;4.07;;;24.50;96.00;;;;;;5079316;28;20179;-78
2023/09/08 13:15:56;;;;;;;5.25;3.90;;;24.50;95.80;;;;;;5081596;28;20171;-78
2023/09/08 13:18:22;;;;;;;3.90;3.70;;;24.60;95.80;;;;;;5087231;28;20234;-78
2023/09/08 13:20:48;;;;;;;3.40;3.20;;;24.60;95.60;;;;;;5086478;28;20195;-79
2023/09/08 13:23:14;;;;;;;4.85;4.13;;;24.60;95.60;;;;;;5086648;28;20182;-80
2023/09/08 13:25:41;;;;;;;3.63;3.42;;;24.50;95.20;;;;;;5070068;28;20273;-77
2023/09/08 13:28:07;;;;;;;4.32;4.00;;;24.50;94.90;;;;;;5084972;28;20167;-77
2023/09/08 13:30:33;;;;;;;3.40;3.20;;;24.50;94.60;;;;;;5093087;28;20186;-78
2023/09/08 13:33:00;;;;;;;3.78;3.55;;;24.50;94.30;;;;;;5076490;28;20229;-78
2023/09/08 13:35:26;;;;;;;3.40;3.03;;;24.50;94.20;;;;;;5076929;28;20202;-79
2023/09/08 13:37:52;;;;;;;3.50;3.30;;;24.40;94.10;;;;;;5077539;28;20191;-80
2023/09/08 13:40:18;;;;;;;3.80;3.53;;;24.40;94.60;;;;;;5085472;28;20201;-78
2023/09/08 13:42:44;;;;;;;4.38;4.07;;;24.40;94.70;;;;;;5090777;28;20224;-78
2023/09/08 13:45:11;;;;;;;4.93;4.43;;;24.50;94.60;;;;;;5077555;28;20246;-77
2023/09/08 13:47:38;;;;;;;4.38;3.95;;;24.40;95.10;;;;;;5079105;28;20568;-79
2023/09/08 13:50:05;;;;;;;4.18;3.88;;;24.40;95.90;;;;;;5087563;28;20167;-77
2023/09/08 13:52:31;;;;;;;4.25;3.95;;;24.50;95.30;;;;;;5080832;28;20262;-78
2023/09/08 13:54:57;;;;;;;4.32;3.63;;;24.40;95.00;;;;;;5076887;28;20175;-78
2023/09/08 13:57:25;;;;;;;3.25;3.05;;;24.50;94.30;;;;;;5058832;28;20656;-77
2023/09/08 13:59:51;;;;;;;4.05;3.75;;;24.50;94.40;;;;;;5078385;28;20170;-77
2023/09/08 14:02:17;;;;;;;3.83;3.50;;;24.50;94.30;;;;;;5078484;28;20183;-77
2023/09/08 14:04:43;;;;;;;3.67;3.47;;;24.50;94.60;;;;;;5058977;28;20273;-78
2023/09/08 14:07:09;;;;;;;4.03;3.72;;;24.40;94.60;;;;;;5077356;28;20198;-78
2023/09/08 14:09:36;;;;;;;4.00;3.60;;;24.40;94.80;;;;;;5077141;28;20175;-79
2023/09/08 14:12:02;;;;;;;3.95;3.65;;;24.40;95.40;;;;;;5076846;28;20285;-78
2023/09/08 14:14:28;;;;;;;4.30;3.90;;;24.40;95.60;;;;;;5060285;28;20341;-79
2023/09/08 14:16:55;;;;;;;3.60;3.40;;;24.40;95.40;;;;;;5085652;28;20213;-78
2023/09/08 14:19:20;;;;;;;4.40;3.55;;;24.30;95.40;;;;;;5083871;28;20615;-78
2023/09/08 14:21:46;;;;;;;4.00;3.70;;;24.40;95.20;;;;;;5076830;28;20210;-78